Bernsfelden, Germany

48.7°F / 9.3°C
Overcast
Windchill: 49°F / 9°C
Humidity: 94%
Dew Point: 47°F / 8°C
Wind: ENE at 1.8 mph / 2.9 km/h
Wind Gust: 2.2 mph / 3.5 km/h
Pressure: 29.98 in / 1015 hPa (Rising)
Visibility: 6.2 miles / 10.0 kilometers
Clouds: Scattered Clouds (SCT) : 1500 ft / 457 m
Mostly Cloudy (BKN) : 2000 ft / 609 m
Overcast (OVC) : 4700 ft / 1432 m
Yesterday's Maximum: 82.4°F / 28.0°C
Yesterday's Minimum: 34.3°F / 1.3°C
UV: 1.0 out of 16
Sunrise:6:07 AM CEST
Sunset:8:29 PM CEST
Moon Rise:2:46 AM CEST
Moon Set:11:25 AM CEST
Moon Phase Waning Gibbous
NOAA Weather Radio
No local feed.
SPECI ETIK 261133Z AUTO 27010KT 9999 SCT015 BKN020 OVC047 09/09 A2996 RMK AO2 RAE03RAB11E33 SLP152 $
As of: 1:41 PM CEST on April 26, 2019
Observed at: Station, Unterwittighausen, Germany

View Station's History

No Yes

Local Satellite

Current Satellite Forecast
Region Default Local
No Yes

View Full Screen WunderMap

Forecast

Current Satellite Forecast

Features

Weather Apps

WunderRadio

Weather Underground Apps
Check out our wide variety of mobile and setup applications.

Weather Underground Applications

Top of Page

© Copyright 2019
The Weather Company, LLC